Angoon, Alaska
Current Conditions -  °F | °C
As of 11:56 AM on Monday 22 Dec 2014 (Local Time) from PAGN Reporting Station
Broken Clouds Broken Clouds  
Wind Chill: 39°   Ceiling: 600
Heat Index: 39°   Visibility: 10mi
Dew Point: 39°   Wind: 0mph
Humidity: 100%   Direction: NA
Pressure: 30.1"   Gusts: NA
Location:  57.5°N, 134.59°W
Report Text: PAGN 222056Z AUTO 00000KT 10SM BKN006 BKN060 04/04 A3010 RMK AO2 TSNO 51021 60000 T00380038 BKN V SCT SLP197 $
Loading
Personal Weather Stations






























Interactive Weather Map New forecast layout! Learn more

10-Day Weather Forecast

Advertisements
Track Severe Weather on mobile